Alder, Washington
Current Conditions -  °F | °C
As of 7:58 AM on Friday 24 Oct 2014 (Local Time) from KGRF Reporting Station
Drizzle Drizzle  
Wind Chill: 44°   Ceiling: Unl
Heat Index: 44°   Visibility: 2mi
Dew Point: 44°   Wind: 0mph
Humidity: 99%   Direction: NA
Pressure: 30.03"   Gusts: NA
Location:  46.8687°N, 122.208°W
Report Text: KGRF 241458Z AUTO 00000KT 2SM DZ BR CLR 07/07 A3003 RMK AO2 VIS 2V10 SLP174 P0000 60000 T00680067 53005 $
Loading
Personal Weather Stations






























Interactive Weather Map New forecast layout! Learn more

10-Day Weather Forecast

Advertisements
Track Severe Weather on mobile